createdAt,value
2023-03-31T00:00:47.206Z,11.08
2023-03-31T00:03:22.115Z,11.15
2023-03-31T00:05:53.337Z,10.91
2023-03-31T00:08:21.138Z,10.72
2023-03-31T00:13:46.762Z,10.33
2023-03-31T00:19:22.087Z,10.30
2023-03-31T00:21:51.049Z,10.25
2023-03-31T00:24:19.708Z,10.26
2023-03-31T00:29:45.771Z,9.99
2023-03-31T00:32:14.531Z,10.02
2023-03-31T00:34:44.459Z,9.99
2023-03-31T00:37:14.639Z,9.95
2023-03-31T00:42:30.797Z,9.89
2023-03-31T00:45:31.541Z,9.90
2023-03-31T00:48:03.181Z,9.84
2023-03-31T00:50:33.430Z,9.78
2023-03-31T00:53:02.130Z,9.88
2023-03-31T00:55:31.353Z,9.78
2023-03-31T00:58:01.857Z,9.74
2023-03-31T01:00:30.104Z,9.73
2023-03-31T01:02:58.957Z,9.77
2023-03-31T01:05:27.677Z,9.76
2023-03-31T01:07:56.369Z,9.72
2023-03-31T01:13:12.410Z,9.67
2023-03-31T01:15:39.784Z,9.72
2023-03-31T01:18:09.839Z,9.75
2023-03-31T01:23:46.363Z,9.73
2023-03-31T01:26:24.639Z,9.52
2023-03-31T01:28:53.106Z,9.26
2023-03-31T01:34:16.928Z,9.28
2023-03-31T01:40:09.617Z,9.36
2023-03-31T01:42:37.359Z,9.53
2023-03-31T01:45:09.030Z,9.56
2023-03-31T01:47:40.757Z,9.31
2023-03-31T01:50:09.628Z,9.37
2023-03-31T01:55:37.964Z,9.43
2023-03-31T01:58:07.127Z,9.51
2023-03-31T02:00:34.870Z,9.61
2023-03-31T02:03:04.318Z,9.58
2023-03-31T02:05:32.917Z,9.67
2023-03-31T02:08:01.412Z,9.74
2023-03-31T02:10:30.692Z,9.67
2023-03-31T02:13:00.596Z,9.78
2023-03-31T02:15:28.799Z,9.91
2023-03-31T02:17:56.483Z,10.00
2023-03-31T02:20:23.959Z,9.98
2023-03-31T02:25:41.500Z,9.98
2023-03-31T02:28:10.542Z,10.01
2023-03-31T02:30:40.897Z,9.86
2023-03-31T02:33:08.351Z,9.91
2023-03-31T02:38:35.895Z,10.12
2023-03-31T02:41:05.769Z,10.05
2023-03-31T02:43:35.134Z,10.12
2023-03-31T02:46:02.615Z,10.18
2023-03-31T02:48:32.223Z,10.03
2023-03-31T02:51:14.455Z,10.25
2023-03-31T02:53:46.072Z,10.20
2023-03-31T02:56:17.391Z,10.29
2023-03-31T02:58:48.972Z,10.40
2023-03-31T03:04:09.402Z,10.55
2023-03-31T03:06:38.433Z,10.45
2023-03-31T03:09:18.413Z,10.47
2023-03-31T03:11:47.170Z,10.47
2023-03-31T03:14:18.228Z,10.39
2023-03-31T03:16:46.141Z,10.49
2023-03-31T03:22:01.800Z,10.32
2023-03-31T03:24:29.718Z,10.35
2023-03-31T03:26:57.608Z,10.47
2023-03-31T03:29:27.095Z,10.23
2023-03-31T03:31:54.557Z,10.26
2023-03-31T03:34:21.847Z,10.31
2023-03-31T03:36:49.169Z,10.24
2023-03-31T03:39:16.577Z,10.06
2023-03-31T03:41:43.925Z,10.08
2023-03-31T03:44:11.244Z,9.99
2023-03-31T03:46:39.912Z,9.91
2023-03-31T03:49:07.465Z,9.89
2023-03-31T03:51:34.816Z,9.95
2023-03-31T03:54:02.130Z,9.78
2023-03-31T03:59:28.056Z,9.93
2023-03-31T04:01:56.838Z,9.95
2023-03-31T04:04:24.272Z,10.02
2023-03-31T04:06:51.630Z,9.93
2023-03-31T04:09:18.926Z,10.05
2023-03-31T04:11:46.240Z,10.16
2023-03-31T04:14:13.547Z,10.16
2023-03-31T04:16:41.000Z,10.13
2023-03-31T04:22:02.669Z,10.04
2023-03-31T04:24:32.736Z,10.08
2023-03-31T04:27:03.182Z,10.15
2023-03-31T04:29:33.451Z,10.08
2023-03-31T04:32:01.114Z,10.07
2023-03-31T04:34:35.401Z,10.18
2023-03-31T04:37:04.843Z,10.18
2023-03-31T04:39:32.303Z,10.31
2023-03-31T04:41:59.980Z,10.25
2023-03-31T04:44:34.110Z,10.31
2023-03-31T04:47:02.902Z,10.21
2023-03-31T04:49:33.336Z,10.25
2023-03-31T04:52:04.782Z,10.24
2023-03-31T04:54:32.119Z,10.24
2023-03-31T04:56:59.446Z,10.25
2023-03-31T04:59:26.831Z,9.91
2023-03-31T05:01:54.157Z,10.09
2023-03-31T05:04:21.668Z,10.08
2023-03-31T05:06:49.103Z,10.04
2023-03-31T05:09:17.992Z,9.96
2023-03-31T05:11:45.330Z,10.01
2023-03-31T05:14:12.846Z,9.99
2023-03-31T05:16:41.891Z,10.04
2023-03-31T05:21:57.770Z,10.14
2023-03-31T05:27:26.787Z,10.11
2023-03-31T05:29:54.128Z,10.25
2023-03-31T05:32:21.591Z,10.16
2023-03-31T05:34:51.645Z,10.24
2023-03-31T05:37:23.030Z,10.18
2023-03-31T05:39:51.812Z,10.15
2023-03-31T05:45:09.351Z,10.31
2023-03-31T05:47:36.974Z,10.08
2023-03-31T05:50:07.423Z,10.11
2023-03-31T05:52:34.753Z,10.16
2023-03-31T05:55:03.618Z,10.27
2023-03-31T05:57:31.148Z,10.14
2023-03-31T05:59:58.806Z,10.23
2023-03-31T06:02:26.223Z,10.16
2023-03-31T06:07:44.321Z,10.10
2023-03-31T06:10:13.079Z,10.35
2023-03-31T06:12:40.480Z,10.27
2023-03-31T06:15:08.374Z,10.29
2023-03-31T06:17:38.409Z,10.24
2023-03-31T06:20:19.711Z,10.20
2023-03-31T06:25:51.351Z,10.13
2023-03-31T06:31:08.824Z,10.23
2023-03-31T06:33:36.614Z,10.24
2023-03-31T06:36:05.798Z,10.30
2023-03-31T06:38:33.357Z,10.32
2023-03-31T06:41:02.092Z,10.42
2023-03-31T06:43:29.388Z,10.42
2023-03-31T06:45:56.892Z,10.35
2023-03-31T06:48:25.043Z,10.45
2023-03-31T06:50:52.757Z,10.53
2023-03-31T06:53:20.241Z,10.46
2023-03-31T06:58:45.876Z,10.41
2023-03-31T07:01:13.372Z,10.33
2023-03-31T07:03:40.806Z,10.37
2023-03-31T07:06:08.308Z,10.40
2023-03-31T07:08:36.141Z,10.42
2023-03-31T07:11:03.863Z,10.42
2023-03-31T07:16:18.220Z,10.14
2023-03-31T07:18:45.813Z,10.18
2023-03-31T07:21:13.372Z,10.17
2023-03-31T07:23:40.866Z,10.31
2023-03-31T07:26:08.525Z,10.27
2023-03-31T07:28:36.025Z,10.25
2023-03-31T07:31:03.713Z,10.42
2023-03-31T07:33:32.668Z,10.59
2023-03-31T07:36:08.261Z,10.53
2023-03-31T07:38:39.701Z,10.59
2023-03-31T07:41:09.394Z,10.70
2023-03-31T07:46:26.516Z,11.13
2023-03-31T07:48:55.506Z,11.20
2023-03-31T07:51:23.826Z,11.09
2023-03-31T07:53:52.309Z,11.16
2023-03-31T07:59:10.271Z,10.90
2023-03-31T08:04:37.182Z,10.85
2023-03-31T08:07:04.687Z,10.98
2023-03-31T08:09:32.266Z,10.96
2023-03-31T08:11:59.591Z,10.84
2023-03-31T08:14:39.974Z,10.84
2023-03-31T08:17:08.225Z,10.77
2023-03-31T08:19:37.086Z,10.89
2023-03-31T08:22:04.462Z,10.91
2023-03-31T08:24:31.823Z,10.93
2023-03-31T08:26:59.124Z,10.87
2023-03-31T08:29:26.496Z,10.78
2023-03-31T08:34:45.932Z,10.69
2023-03-31T08:37:13.234Z,10.67
2023-03-31T08:39:41.105Z,10.87
2023-03-31T08:42:12.158Z,10.81
2023-03-31T08:44:41.868Z,10.82
2023-03-31T08:47:11.893Z,10.64
2023-03-31T08:49:41.339Z,10.76
2023-03-31T08:52:12.310Z,10.72
2023-03-31T08:54:40.193Z,10.66
2023-03-31T08:57:11.926Z,10.55
2023-03-31T09:02:48.430Z,10.65
2023-03-31T09:05:24.202Z,10.87
2023-03-31T09:10:50.964Z,10.79
2023-03-31T09:13:29.049Z,10.54
2023-03-31T09:15:57.346Z,10.70
2023-03-31T09:18:27.512Z,10.42
2023-03-31T09:23:57.025Z,10.05
2023-03-31T09:26:27.604Z,10.40
2023-03-31T09:28:55.582Z,10.30
2023-03-31T09:31:22.932Z,10.32
2023-03-31T09:33:50.353Z,10.21
2023-03-31T09:36:18.605Z,10.11
2023-03-31T09:38:47.114Z,10.48
2023-03-31T09:41:15.108Z,10.41
2023-03-31T09:43:45.960Z,10.31
2023-03-31T09:46:16.261Z,10.37
2023-03-31T09:48:44.893Z,10.38
2023-03-31T09:51:16.807Z,10.19
2023-03-31T09:53:44.602Z,10.36
2023-03-31T09:56:12.141Z,10.51
2023-03-31T09:58:41.197Z,10.59
2023-03-31T10:01:10.617Z,10.73
2023-03-31T10:03:43.004Z,10.58
2023-03-31T10:06:10.748Z,10.73
2023-03-31T10:08:39.581Z,10.47
2023-03-31T10:11:11.311Z,10.49
2023-03-31T10:16:31.683Z,10.53
2023-03-31T10:19:12.503Z,10.72
2023-03-31T10:21:39.861Z,10.67
2023-03-31T10:27:06.314Z,10.71
2023-03-31T10:29:33.924Z,10.92
2023-03-31T10:32:05.285Z,10.84
2023-03-31T10:34:32.608Z,10.72
2023-03-31T10:36:59.915Z,10.75
2023-03-31T10:42:26.006Z,10.95
2023-03-31T10:44:56.488Z,10.98
2023-03-31T10:47:25.461Z,11.04
2023-03-31T10:49:57.146Z,11.21
2023-03-31T10:52:27.076Z,11.50
2023-03-31T10:54:55.725Z,11.60
2023-03-31T10:57:24.647Z,12.11
2023-03-31T11:00:01.874Z,12.31
2023-03-31T11:02:39.901Z,12.33
2023-03-31T11:05:09.669Z,12.50
2023-03-31T11:07:39.417Z,13.19
2023-03-31T11:13:00.638Z,13.32
2023-03-31T11:18:43.432Z,13.85
2023-03-31T11:21:13.624Z,13.64
2023-03-31T11:23:42.385Z,13.29
2023-03-31T11:29:11.903Z,13.10
2023-03-31T11:31:41.710Z,13.14
2023-03-31T11:34:16.863Z,13.14
2023-03-31T11:36:52.189Z,13.43
2023-03-31T11:39:23.273Z,13.43
2023-03-31T11:41:50.937Z,13.15
2023-03-31T11:44:19.243Z,13.35
2023-03-31T11:47:11.674Z,13.51
2023-03-31T11:49:41.352Z,13.59
2023-03-31T11:54:57.261Z,13.68
2023-03-31T11:57:25.500Z,14.13
2023-03-31T11:59:54.674Z,13.90
2023-03-31T12:05:22.279Z,13.47
2023-03-31T12:07:51.272Z,13.30
2023-03-31T12:10:20.697Z,13.71
2023-03-31T12:12:49.642Z,14.00
2023-03-31T12:15:18.406Z,13.66
2023-03-31T12:17:46.475Z,13.60
2023-03-31T12:23:04.779Z,13.05
2023-03-31T12:25:35.466Z,12.79
2023-03-31T12:28:02.978Z,12.79
2023-03-31T12:30:31.313Z,13.29
2023-03-31T12:33:00.383Z,13.43
2023-03-31T12:38:26.747Z,13.17
2023-03-31T12:43:58.867Z,13.23
2023-03-31T12:46:30.970Z,13.26
2023-03-31T12:49:00.763Z,13.17
2023-03-31T12:51:33.049Z,13.15
2023-03-31T12:54:05.361Z,13.53
2023-03-31T12:56:47.639Z,14.05
2023-03-31T12:59:18.555Z,14.43
2023-03-31T13:04:34.776Z,15.35
2023-03-31T13:07:02.114Z,15.44
2023-03-31T13:12:31.181Z,15.56
2023-03-31T13:15:00.207Z,15.66
2023-03-31T13:17:29.130Z,14.53
2023-03-31T13:19:59.128Z,13.61
2023-03-31T13:22:33.216Z,12.82
2023-03-31T13:25:19.359Z,12.33
2023-03-31T13:27:53.072Z,11.72
2023-03-31T13:30:35.444Z,11.81
2023-03-31T13:33:03.841Z,11.94
2023-03-31T13:35:31.188Z,12.12
2023-03-31T13:38:01.634Z,12.55
2023-03-31T13:40:33.128Z,13.09
2023-03-31T13:43:11.147Z,12.69
2023-03-31T13:45:42.957Z,12.82
2023-03-31T13:51:15.854Z,13.05
2023-03-31T13:53:51.318Z,13.07
2023-03-31T13:56:34.771Z,12.80
2023-03-31T13:59:23.693Z,12.50
2023-03-31T14:02:03.470Z,12.61
2023-03-31T14:04:39.161Z,12.36
2023-03-31T14:07:08.529Z,12.24
2023-03-31T14:12:35.707Z,12.36
2023-03-31T14:15:05.121Z,12.48
2023-03-31T14:17:33.751Z,12.57
2023-03-31T14:20:08.609Z,12.56
2023-03-31T14:22:40.311Z,12.77
2023-03-31T14:28:09.561Z,12.43
2023-03-31T14:30:42.581Z,12.31
2023-03-31T14:33:17.031Z,12.52
2023-03-31T14:35:45.072Z,12.41
2023-03-31T14:38:13.176Z,12.28
2023-03-31T14:40:43.794Z,12.27
2023-03-31T14:43:11.769Z,12.18
2023-03-31T14:48:33.113Z,12.46
2023-03-31T14:53:59.118Z,12.47
2023-03-31T14:56:28.684Z,12.35
2023-03-31T14:58:56.303Z,12.48
2023-03-31T15:01:24.851Z,12.77
2023-03-31T15:03:53.768Z,13.05
2023-03-31T15:06:21.266Z,12.52
2023-03-31T15:08:48.642Z,12.60
2023-03-31T15:14:05.791Z,12.17
2023-03-31T15:16:36.135Z,12.28
2023-03-31T15:19:06.335Z,12.25
2023-03-31T15:21:37.257Z,12.11
2023-03-31T15:24:04.794Z,11.98
2023-03-31T15:26:57.305Z,12.30
2023-03-31T15:29:25.923Z,12.48
2023-03-31T15:31:53.331Z,12.18
2023-03-31T15:34:25.665Z,12.48
2023-03-31T15:36:54.454Z,12.48
2023-03-31T15:39:21.846Z,12.41
2023-03-31T15:41:49.380Z,12.66
2023-03-31T15:44:30.063Z,12.93
2023-03-31T15:49:42.013Z,12.78
2023-03-31T15:52:17.792Z,12.88
2023-03-31T15:54:45.159Z,12.74
2023-03-31T15:57:12.505Z,12.46
2023-03-31T16:07:47.758Z,12.25
2023-03-31T16:10:16.872Z,12.39
2023-03-31T16:12:46.593Z,12.13
2023-03-31T16:18:07.594Z,12.45
2023-03-31T16:23:41.690Z,12.17
2023-03-31T16:26:09.090Z,11.97
2023-03-31T16:28:36.879Z,12.04
2023-03-31T16:31:05.168Z,12.15
2023-03-31T16:36:21.025Z,11.91
2023-03-31T16:38:49.711Z,12.01
2023-03-31T16:41:17.155Z,12.06
2023-03-31T16:43:45.298Z,12.04
2023-03-31T16:49:11.214Z,12.09
2023-03-31T16:51:38.511Z,12.01
2023-03-31T16:54:08.082Z,12.07
2023-03-31T16:56:35.406Z,12.05
2023-03-31T16:59:03.574Z,12.08
2023-03-31T17:01:30.897Z,12.03
2023-03-31T17:03:58.249Z,11.87
2023-03-31T17:09:26.191Z,12.00
2023-03-31T17:11:53.534Z,11.98
2023-03-31T17:14:20.886Z,12.10
2023-03-31T17:16:48.976Z,12.15
2023-03-31T17:22:14.796Z,11.98
2023-03-31T17:24:43.449Z,11.13
2023-03-31T17:30:10.187Z,11.24
2023-03-31T17:32:37.500Z,11.20
2023-03-31T17:35:05.039Z,11.01
2023-03-31T17:37:32.946Z,10.89
2023-03-31T17:40:01.601Z,10.90
2023-03-31T17:42:28.973Z,10.84
2023-03-31T17:44:58.320Z,10.96
2023-03-31T17:47:25.777Z,11.06
2023-03-31T17:49:53.331Z,11.14
2023-03-31T17:55:10.569Z,10.44
2023-03-31T17:57:40.146Z,10.39
2023-03-31T18:00:08.988Z,10.33
2023-03-31T18:02:39.253Z,10.34
2023-03-31T18:08:05.581Z,10.30
2023-03-31T18:10:34.487Z,10.28
2023-03-31T18:13:02.409Z,10.15
2023-03-31T18:15:29.763Z,10.23
2023-03-31T18:17:57.115Z,10.39
2023-03-31T18:20:27.970Z,10.32
2023-03-31T18:22:55.406Z,10.32
2023-03-31T18:25:22.758Z,10.30
2023-03-31T18:27:51.809Z,10.15
2023-03-31T18:30:21.190Z,10.28
2023-03-31T18:33:13.012Z,10.39
2023-03-31T18:35:40.647Z,10.34
2023-03-31T18:38:08.189Z,10.38
2023-03-31T18:40:35.887Z,10.35
2023-03-31T18:43:04.575Z,10.25
2023-03-31T18:45:32.729Z,10.13
2023-03-31T18:48:00.296Z,10.24
2023-03-31T18:50:28.106Z,10.08
2023-03-31T18:52:56.442Z,10.18
2023-03-31T18:58:24.188Z,10.38
2023-03-31T19:00:51.591Z,10.21
2023-03-31T19:03:19.433Z,10.26
2023-03-31T19:05:46.853Z,10.33
2023-03-31T19:08:14.792Z,10.44
2023-03-31T19:10:42.099Z,10.45
2023-03-31T19:13:09.392Z,10.34
2023-03-31T19:15:38.015Z,10.34
2023-03-31T19:18:06.055Z,10.50
2023-03-31T19:20:33.452Z,10.53
2023-03-31T19:23:00.817Z,10.39
2023-03-31T19:25:28.441Z,10.37
2023-03-31T19:27:56.246Z,10.44
2023-03-31T19:30:24.857Z,10.37
2023-03-31T19:32:53.584Z,10.48
2023-03-31T19:35:20.968Z,10.46
2023-03-31T19:37:48.481Z,10.41
2023-03-31T19:40:15.853Z,10.28
2023-03-31T19:42:44.210Z,10.27
2023-03-31T19:45:36.771Z,10.24
2023-03-31T19:48:05.885Z,10.15
2023-03-31T19:50:33.218Z,10.17
2023-03-31T19:53:00.816Z,10.25
2023-03-31T19:55:28.352Z,10.30
2023-03-31T19:57:55.866Z,10.05
2023-03-31T20:03:15.767Z,10.02
2023-03-31T20:05:43.162Z,10.07
2023-03-31T20:08:10.474Z,10.12
2023-03-31T20:10:37.826Z,10.03
2023-03-31T20:16:05.865Z,10.06
2023-03-31T20:18:36.262Z,10.12
2023-03-31T20:21:05.402Z,10.06
2023-03-31T20:23:32.769Z,10.21
2023-03-31T20:26:00.861Z,10.10
2023-03-31T20:28:28.312Z,10.09
2023-03-31T20:30:56.105Z,10.26
2023-03-31T20:36:13.999Z,10.25
2023-03-31T20:38:41.916Z,10.19
2023-03-31T20:41:09.589Z,10.17
2023-03-31T20:43:37.282Z,9.97
2023-03-31T20:46:04.978Z,9.97
2023-03-31T20:51:22.592Z,9.97
2023-03-31T20:53:52.601Z,10.02
2023-03-31T20:56:20.616Z,9.91
2023-03-31T20:58:48.169Z,10.00
2023-03-31T21:01:15.597Z,9.99
2023-03-31T21:03:43.348Z,9.99
2023-03-31T21:06:11.941Z,10.08
2023-03-31T21:11:40.084Z,10.05
2023-03-31T21:14:07.651Z,10.14
2023-03-31T21:16:35.165Z,10.20
2023-03-31T21:19:02.560Z,10.23
2023-03-31T21:21:30.484Z,10.06
2023-03-31T21:23:58.016Z,10.18
2023-03-31T21:26:25.737Z,10.10
2023-03-31T21:28:58.543Z,10.02
2023-03-31T21:31:27.067Z,9.91
2023-03-31T21:33:56.199Z,9.94
2023-03-31T21:36:23.927Z,9.89
2023-03-31T21:38:52.402Z,9.98
2023-03-31T21:41:22.502Z,9.82
2023-03-31T21:46:50.284Z,10.16
2023-03-31T21:49:18.634Z,9.80
2023-03-31T21:51:46.066Z,9.96
2023-03-31T21:54:13.440Z,10.04
2023-03-31T21:56:40.756Z,10.06
2023-03-31T21:59:08.642Z,9.85
2023-03-31T22:01:36.271Z,10.02
2023-03-31T22:04:05.076Z,9.94
2023-03-31T22:06:34.338Z,10.01
2023-03-31T22:09:01.678Z,10.05
2023-03-31T22:11:29.197Z,10.08
2023-03-31T22:13:57.128Z,9.97
2023-03-31T22:16:24.581Z,10.29
2023-03-31T22:18:52.675Z,10.35
2023-03-31T22:21:22.612Z,10.29
2023-03-31T22:23:51.177Z,10.01
2023-03-31T22:29:16.869Z,10.09
2023-03-31T22:31:44.183Z,10.18
2023-03-31T22:34:11.915Z,10.04
2023-03-31T22:36:40.648Z,10.07
2023-03-31T22:42:15.926Z,9.91
2023-03-31T22:44:43.207Z,10.00
2023-03-31T22:47:10.815Z,9.92
2023-03-31T22:49:38.131Z,9.86
2023-03-31T22:52:06.883Z,10.00
2023-03-31T22:54:34.209Z,9.88
2023-03-31T22:57:01.872Z,9.80
2023-03-31T22:59:29.197Z,9.78
2023-03-31T23:01:56.519Z,9.63
2023-03-31T23:04:23.920Z,9.95
2023-03-31T23:06:52.705Z,9.77
2023-03-31T23:12:20.537Z,9.63
2023-03-31T23:14:47.835Z,9.82
2023-03-31T23:17:15.144Z,9.72
2023-03-31T23:19:43.061Z,9.65
2023-03-31T23:24:58.803Z,9.76
2023-03-31T23:27:27.442Z,9.67
2023-03-31T23:29:54.773Z,9.66
2023-03-31T23:32:22.093Z,9.71
2023-03-31T23:34:50.788Z,9.74
2023-03-31T23:37:18.884Z,9.68
2023-03-31T23:39:46.371Z,9.72
2023-03-31T23:42:16.037Z,9.46
2023-03-31T23:44:44.681Z,9.39
2023-03-31T23:50:11.204Z,9.50
2023-03-31T23:52:38.505Z,9.44
2023-03-31T23:55:06.558Z,9.43
2023-03-31T23:57:34.050Z,9.57
